createdAt,value
2022-07-29T00:00:06.951Z,20.85
2022-07-29T00:02:41.540Z,20.85
2022-07-29T00:05:14.662Z,20.84
2022-07-29T00:07:47.355Z,20.83
2022-07-29T00:10:21.523Z,20.82
2022-07-29T00:12:54.078Z,20.81
2022-07-29T00:15:27.110Z,20.82
2022-07-29T00:18:03.668Z,20.80
2022-07-29T00:20:36.929Z,20.63
2022-07-29T00:23:14.044Z,20.15
2022-07-29T00:25:50.237Z,19.54
2022-07-29T00:28:24.542Z,18.88
2022-07-29T00:30:58.960Z,18.25
2022-07-29T00:33:32.164Z,17.73
2022-07-29T00:36:03.717Z,17.34
2022-07-29T00:38:34.440Z,17.03
2022-07-29T00:41:05.107Z,16.79
2022-07-29T00:43:35.648Z,16.59
2022-07-29T00:46:06.218Z,16.44
2022-07-29T00:48:37.312Z,16.29
2022-07-29T00:51:11.808Z,16.17
2022-07-29T00:53:42.249Z,16.08
2022-07-29T00:56:12.887Z,16.02
2022-07-29T00:58:43.470Z,16.00
2022-07-29T01:01:13.988Z,16.01
2022-07-29T01:03:44.683Z,16.04
2022-07-29T01:06:16.012Z,16.08
2022-07-29T01:08:47.997Z,16.12
2022-07-29T01:11:19.859Z,16.17
2022-07-29T01:13:50.886Z,16.20
2022-07-29T01:16:26.982Z,16.24
2022-07-29T01:19:01.302Z,16.32
2022-07-29T01:21:54.083Z,16.44
2022-07-29T01:24:39.693Z,16.57
2022-07-29T01:27:23.781Z,16.63
2022-07-29T01:29:59.712Z,16.64
2022-07-29T01:32:33.917Z,16.65
2022-07-29T01:35:09.085Z,16.65
2022-07-29T01:37:41.986Z,16.65
2022-07-29T01:40:17.469Z,16.66
2022-07-29T01:42:52.873Z,16.69
2022-07-29T01:45:29.857Z,16.74
2022-07-29T01:48:06.977Z,16.81
2022-07-29T01:50:51.758Z,16.88
2022-07-29T01:53:29.077Z,16.93
2022-07-29T01:56:14.060Z,17.03
2022-07-29T01:58:49.356Z,17.15
2022-07-29T02:01:32.183Z,17.22
2022-07-29T02:04:08.520Z,17.25
2022-07-29T02:06:47.788Z,17.25
2022-07-29T02:09:25.695Z,17.24
2022-07-29T02:12:02.953Z,17.23
2022-07-29T02:14:42.102Z,17.27
2022-07-29T02:17:20.547Z,17.29
2022-07-29T02:19:55.868Z,17.31
2022-07-29T02:22:32.401Z,17.31
2022-07-29T02:25:13.758Z,17.28
2022-07-29T02:35:01.430Z,17.22
2022-07-29T02:37:37.460Z,17.22
2022-07-29T02:40:19.825Z,17.23
2022-07-29T02:42:56.388Z,17.22
2022-07-29T02:48:01.549Z,17.19
2022-07-29T02:50:35.568Z,17.10
2022-07-29T02:53:10.695Z,17.01
2022-07-29T02:55:46.751Z,16.92
2022-07-29T02:58:27.532Z,16.83
2022-07-29T03:00:59.618Z,16.74
2022-07-29T03:03:32.960Z,16.65
2022-07-29T03:06:05.142Z,16.57
2022-07-29T03:08:36.196Z,16.50
2022-07-29T03:11:07.549Z,16.44
2022-07-29T03:13:39.018Z,16.38
2022-07-29T03:16:15.637Z,16.34
2022-07-29T03:18:49.147Z,16.33
2022-07-29T03:21:23.465Z,16.33
2022-07-29T03:24:10.585Z,16.32
2022-07-29T03:27:14.069Z,16.25
2022-07-29T03:29:50.047Z,16.06
2022-07-29T03:32:23.879Z,15.85
2022-07-29T03:34:56.162Z,15.68
2022-07-29T03:37:26.805Z,15.50
2022-07-29T03:39:59.312Z,15.34
2022-07-29T03:42:34.347Z,15.16
2022-07-29T03:45:07.676Z,15.01
2022-07-29T03:47:50.093Z,14.91
2022-07-29T03:50:22.947Z,14.82
2022-07-29T03:52:53.309Z,14.76
2022-07-29T03:55:24.025Z,14.73
2022-07-29T03:57:55.773Z,14.68
2022-07-29T04:00:27.039Z,14.63
2022-07-29T04:02:57.635Z,14.58
2022-07-29T04:05:28.146Z,14.56
2022-07-29T04:07:58.569Z,14.56
2022-07-29T04:10:31.750Z,14.54
2022-07-29T04:13:02.986Z,14.52
2022-07-29T04:15:33.470Z,14.50
2022-07-29T04:18:04.140Z,14.48
2022-07-29T04:20:34.485Z,14.49
2022-07-29T04:23:05.349Z,14.50
2022-07-29T04:25:38.425Z,14.52
2022-07-29T04:28:09.212Z,14.55
2022-07-29T04:30:40.369Z,14.57
2022-07-29T04:33:11.212Z,14.61
2022-07-29T04:35:49.904Z,14.66
2022-07-29T04:38:23.085Z,14.73
2022-07-29T04:40:53.444Z,14.81
2022-07-29T04:43:24.905Z,14.94
2022-07-29T04:45:55.738Z,15.06
2022-07-29T04:48:28.696Z,15.17
2022-07-29T04:50:59.510Z,15.36
2022-07-29T04:53:29.864Z,15.53
2022-07-29T04:56:00.233Z,15.93
2022-07-29T04:58:31.177Z,16.57
2022-07-29T05:01:01.701Z,17.24
2022-07-29T05:03:32.136Z,17.84
2022-07-29T05:06:02.594Z,18.38
2022-07-29T05:08:32.939Z,18.92
2022-07-29T05:11:12.057Z,19.39
2022-07-29T05:13:45.906Z,19.79
2022-07-29T05:16:17.562Z,20.21
2022-07-29T05:18:48.009Z,20.58
2022-07-29T05:21:18.638Z,20.99
2022-07-29T05:23:48.994Z,21.42
2022-07-29T05:26:19.328Z,21.77
2022-07-29T05:28:49.762Z,22.02
2022-07-29T05:31:20.431Z,22.26
2022-07-29T05:33:50.895Z,22.49
2022-07-29T05:36:21.221Z,22.68
2022-07-29T05:38:53.102Z,22.82
2022-07-29T05:41:23.540Z,22.97
2022-07-29T05:43:53.828Z,23.06
2022-07-29T05:46:24.540Z,23.27
2022-07-29T05:48:55.055Z,23.40
2022-07-29T05:51:25.570Z,23.47
2022-07-29T05:53:55.924Z,23.40
2022-07-29T05:56:26.339Z,23.40
2022-07-29T05:58:56.648Z,23.41
2022-07-29T06:01:27.143Z,23.59
2022-07-29T06:03:57.534Z,23.84
2022-07-29T06:06:27.974Z,24.01
2022-07-29T06:08:58.578Z,24.17
2022-07-29T06:11:29.023Z,24.27
2022-07-29T06:13:59.441Z,24.36
2022-07-29T06:16:30.389Z,24.61
2022-07-29T06:19:01.043Z,24.90
2022-07-29T06:21:31.472Z,24.95
2022-07-29T06:24:01.837Z,24.82
2022-07-29T06:26:35.296Z,24.77
2022-07-29T06:29:10.131Z,24.64
2022-07-29T06:31:40.939Z,24.52
2022-07-29T06:34:11.887Z,24.33
2022-07-29T06:36:44.685Z,24.22
2022-07-29T06:39:17.231Z,24.23
2022-07-29T06:41:51.495Z,24.24
2022-07-29T06:44:22.261Z,24.31
2022-07-29T06:46:54.215Z,24.48
2022-07-29T06:49:27.106Z,24.64
2022-07-29T06:51:58.324Z,24.57
2022-07-29T06:54:28.818Z,24.76
2022-07-29T06:57:00.095Z,25.04
2022-07-29T06:59:35.398Z,25.32
2022-07-29T07:02:06.563Z,25.45
2022-07-29T07:04:37.057Z,25.54
2022-07-29T07:07:07.498Z,25.60
2022-07-29T07:09:39.929Z,25.72
2022-07-29T07:12:11.932Z,25.90
2022-07-29T07:14:44.051Z,26.04
2022-07-29T07:17:14.422Z,26.11
2022-07-29T07:19:46.174Z,26.34
2022-07-29T07:22:16.609Z,26.50
2022-07-29T07:24:47.250Z,26.51
2022-07-29T07:27:17.799Z,26.51
2022-07-29T07:29:48.956Z,26.55
2022-07-29T07:32:19.638Z,26.65
2022-07-29T07:34:50.831Z,26.69
2022-07-29T07:37:22.979Z,26.51
2022-07-29T07:39:52.512Z,26.56
2022-07-29T07:42:23.165Z,26.66
2022-07-29T07:45:12.529Z,26.75
2022-07-29T07:47:45.141Z,26.94
2022-07-29T07:50:19.071Z,27.07
2022-07-29T07:52:55.928Z,27.12
2022-07-29T07:55:27.427Z,27.11
2022-07-29T07:57:59.070Z,27.22
2022-07-29T08:00:30.105Z,27.36
2022-07-29T08:03:02.238Z,27.52
2022-07-29T08:05:33.469Z,27.58
2022-07-29T08:08:05.391Z,27.62
2022-07-29T08:11:03.137Z,27.64
2022-07-29T08:13:36.667Z,27.76
2022-07-29T08:16:14.130Z,27.86
2022-07-29T08:18:48.297Z,28.13
2022-07-29T08:21:19.284Z,28.24
2022-07-29T08:24:00.772Z,28.22
2022-07-29T08:26:33.694Z,28.20
2022-07-29T08:29:07.664Z,28.27
2022-07-29T08:31:38.340Z,28.33
2022-07-29T08:34:13.772Z,28.30
2022-07-29T08:42:42.645Z,28.56
2022-07-29T08:45:14.725Z,28.45
2022-07-29T08:47:49.035Z,28.46
2022-07-29T08:50:23.709Z,28.51
2022-07-29T08:53:04.436Z,28.64
2022-07-29T08:55:38.795Z,28.83
2022-07-29T08:58:11.802Z,28.94
2022-07-29T09:00:51.071Z,29.01
2022-07-29T09:03:25.550Z,28.98
2022-07-29T09:05:57.398Z,28.92
2022-07-29T09:08:27.045Z,29.07
2022-07-29T09:10:58.537Z,29.23
2022-07-29T09:13:30.932Z,29.48
2022-07-29T09:16:08.598Z,29.61
2022-07-29T09:18:41.763Z,29.78
2022-07-29T09:21:31.774Z,29.94
2022-07-29T09:24:09.658Z,30.03
2022-07-29T09:26:46.382Z,30.01
2022-07-29T09:29:18.804Z,30.19
2022-07-29T09:31:52.300Z,30.29
2022-07-29T09:34:32.104Z,30.58
2022-07-29T09:37:06.898Z,30.62
2022-07-29T09:39:45.233Z,30.17
2022-07-29T09:42:17.578Z,29.74
2022-07-29T09:44:54.159Z,29.47
2022-07-29T09:47:48.064Z,29.51
2022-07-29T09:50:24.820Z,29.77
2022-07-29T09:52:56.598Z,29.96
2022-07-29T09:55:30.580Z,30.06
2022-07-29T09:58:22.515Z,30.06
2022-07-29T10:00:55.961Z,30.15
2022-07-29T10:03:30.610Z,30.39
2022-07-29T10:06:17.365Z,30.78
2022-07-29T10:08:48.715Z,30.91
2022-07-29T10:11:21.047Z,30.97
2022-07-29T10:13:53.240Z,30.64
2022-07-29T10:16:34.042Z,30.49
2022-07-29T10:19:05.992Z,30.39
2022-07-29T10:21:46.148Z,30.02
2022-07-29T10:24:22.906Z,29.84
2022-07-29T10:26:54.887Z,29.89
2022-07-29T10:29:26.598Z,30.10
2022-07-29T10:32:11.470Z,30.19
2022-07-29T10:35:09.395Z,30.22
2022-07-29T10:38:01.581Z,30.32
2022-07-29T10:41:06.773Z,30.36
2022-07-29T10:43:45.170Z,30.41
2022-07-29T10:46:19.590Z,30.44
2022-07-29T10:49:11.220Z,30.72
2022-07-29T10:52:05.938Z,31.07
2022-07-29T10:54:51.293Z,31.40
2022-07-29T10:57:54.080Z,31.59
2022-07-29T11:00:36.272Z,31.75
2022-07-29T11:03:10.462Z,31.90
2022-07-29T11:06:26.345Z,31.90
2022-07-29T11:09:25.862Z,32.21
2022-07-29T11:12:49.642Z,32.49
2022-07-29T11:15:32.206Z,32.72
2022-07-29T11:18:15.228Z,33.11
2022-07-29T11:20:51.045Z,33.36
2022-07-29T11:23:34.033Z,33.54
2022-07-29T11:26:23.763Z,33.97
2022-07-29T11:28:59.616Z,34.28
2022-07-29T11:36:28.002Z,34.15
2022-07-29T11:39:36.399Z,33.18
2022-07-29T11:42:44.582Z,32.57
2022-07-29T11:45:42.759Z,32.34
2022-07-29T11:48:29.784Z,32.23
2022-07-29T11:51:05.709Z,32.26
2022-07-29T11:53:47.222Z,32.39
2022-07-29T11:56:25.842Z,32.98
2022-07-29T11:59:08.379Z,33.44
2022-07-29T12:01:41.104Z,33.67
2022-07-29T12:04:13.030Z,34.10
2022-07-29T12:06:48.710Z,34.74
2022-07-29T12:09:21.275Z,35.08
2022-07-29T12:12:03.121Z,35.14
2022-07-29T12:14:37.404Z,35.24
2022-07-29T12:17:10.678Z,35.50
2022-07-29T12:19:47.576Z,35.91
2022-07-29T12:22:30.598Z,36.20
2022-07-29T12:25:36.466Z,36.49
2022-07-29T12:28:14.215Z,36.56
2022-07-29T12:30:51.742Z,36.81
2022-07-29T12:33:30.710Z,36.89
2022-07-29T12:36:07.166Z,36.90
2022-07-29T12:38:42.441Z,37.14
2022-07-29T12:41:14.135Z,37.43
2022-07-29T12:43:57.124Z,37.84
2022-07-29T12:46:28.249Z,38.01
2022-07-29T12:48:59.937Z,37.98
2022-07-29T12:51:34.289Z,38.01
2022-07-29T12:54:12.301Z,38.08
2022-07-29T12:56:45.330Z,38.12
2022-07-29T12:59:18.780Z,38.47
2022-07-29T13:01:51.975Z,38.99
2022-07-29T13:04:32.110Z,39.25
2022-07-29T13:07:10.606Z,39.34
2022-07-29T13:09:46.726Z,39.24
2022-07-29T13:12:21.423Z,39.37
2022-07-29T13:14:52.849Z,39.57
2022-07-29T13:17:32.973Z,38.59
2022-07-29T13:20:10.377Z,37.16
2022-07-29T13:22:47.023Z,36.38
2022-07-29T13:25:28.271Z,37.08
2022-07-29T13:28:01.768Z,38.12
2022-07-29T13:30:35.290Z,38.39
2022-07-29T13:33:08.091Z,37.12
2022-07-29T13:35:42.981Z,36.02
2022-07-29T13:38:15.691Z,36.96
2022-07-29T13:40:48.241Z,36.66
2022-07-29T13:43:20.475Z,35.63
2022-07-29T13:45:55.383Z,34.74
2022-07-29T13:48:27.915Z,34.07
2022-07-29T13:51:01.295Z,33.49
2022-07-29T13:53:34.105Z,32.70
2022-07-29T13:56:12.035Z,32.00
2022-07-29T13:58:46.600Z,31.51
2022-07-29T14:01:19.871Z,31.15
2022-07-29T14:03:54.679Z,30.65
2022-07-29T14:06:29.978Z,30.23
2022-07-29T14:09:07.510Z,29.85
2022-07-29T14:11:41.386Z,29.52
2022-07-29T14:14:13.982Z,29.27
2022-07-29T14:16:47.862Z,28.98
2022-07-29T14:19:25.246Z,28.67
2022-07-29T14:21:58.915Z,28.47
2022-07-29T14:24:33.503Z,28.40
2022-07-29T14:27:15.939Z,29.02
2022-07-29T14:29:49.406Z,29.45
2022-07-29T14:32:22.650Z,29.48
2022-07-29T14:35:03.806Z,29.24
2022-07-29T14:37:39.837Z,28.81
2022-07-29T14:43:09.465Z,27.87
2022-07-29T14:45:46.492Z,27.60
2022-07-29T14:48:20.470Z,27.38
2022-07-29T14:50:52.022Z,27.15
2022-07-29T14:53:25.514Z,26.92
2022-07-29T14:56:10.357Z,26.74
2022-07-29T14:58:52.135Z,26.65
2022-07-29T15:01:31.054Z,26.74
2022-07-29T15:04:04.195Z,27.22
2022-07-29T15:06:39.624Z,27.50
2022-07-29T15:09:13.115Z,27.64
2022-07-29T15:11:46.336Z,27.75
2022-07-29T15:14:19.052Z,27.85
2022-07-29T15:16:55.829Z,27.90
2022-07-29T15:19:29.922Z,27.88
2022-07-29T15:22:07.909Z,27.82
2022-07-29T15:24:55.141Z,27.72
2022-07-29T15:27:39.655Z,27.66
2022-07-29T15:30:33.534Z,27.62
2022-07-29T15:33:09.924Z,27.61
2022-07-29T15:35:44.731Z,27.53
2022-07-29T15:38:28.704Z,27.41
2022-07-29T15:41:05.268Z,27.29
2022-07-29T15:43:40.815Z,27.23
2022-07-29T15:46:34.696Z,27.14
2022-07-29T15:49:10.355Z,27.02
2022-07-29T15:51:45.170Z,26.88
2022-07-29T15:54:18.776Z,26.69
2022-07-29T15:56:53.971Z,26.49
2022-07-29T15:59:27.516Z,26.19
2022-07-29T16:02:06.108Z,25.82
2022-07-29T16:04:40.553Z,25.38
2022-07-29T16:07:15.561Z,25.01
2022-07-29T16:09:53.364Z,24.65
2022-07-29T16:12:27.932Z,24.26
2022-07-29T16:22:16.938Z,23.15
2022-07-29T16:24:50.752Z,23.10
2022-07-29T16:27:37.588Z,23.16
2022-07-29T16:30:27.967Z,23.34
2022-07-29T16:33:08.065Z,23.54
2022-07-29T16:35:43.331Z,23.78
2022-07-29T16:43:11.273Z,24.82
2022-07-29T16:45:46.481Z,24.99
2022-07-29T16:48:21.767Z,25.09
2022-07-29T16:50:59.681Z,25.18
2022-07-29T16:53:35.170Z,25.16
2022-07-29T16:56:11.840Z,25.07
2022-07-29T16:58:48.263Z,24.97
2022-07-29T17:07:47.631Z,24.30
2022-07-29T17:18:21.479Z,23.35
2022-07-29T17:20:52.724Z,23.18
2022-07-29T17:23:23.967Z,22.97
2022-07-29T17:26:03.703Z,22.82
2022-07-29T17:28:35.258Z,22.72
2022-07-29T17:31:06.503Z,22.63
2022-07-29T17:33:41.422Z,22.58
2022-07-29T17:36:28.044Z,22.53
2022-07-29T17:39:00.554Z,22.46
2022-07-29T17:41:32.341Z,22.38
2022-07-29T17:44:03.589Z,22.31
2022-07-29T17:46:35.350Z,22.28
2022-07-29T17:49:06.863Z,22.22
2022-07-29T17:51:37.876Z,22.15
2022-07-29T17:54:08.974Z,22.05
2022-07-29T17:56:39.691Z,21.91
2022-07-29T17:59:10.826Z,21.72
2022-07-29T18:01:41.790Z,21.48
2022-07-29T18:04:13.072Z,21.23
2022-07-29T18:06:43.537Z,21.07
2022-07-29T18:09:14.043Z,20.92
2022-07-29T18:11:45.917Z,20.73
2022-07-29T18:14:16.316Z,20.51
2022-07-29T18:16:46.744Z,20.29
2022-07-29T18:19:17.189Z,20.11
2022-07-29T18:21:54.008Z,19.93
2022-07-29T18:24:27.666Z,19.79
2022-07-29T18:26:58.715Z,19.66
2022-07-29T18:29:30.356Z,19.55
2022-07-29T18:32:01.509Z,19.47
2022-07-29T18:34:31.945Z,19.40
2022-07-29T18:37:02.518Z,19.34
2022-07-29T18:39:32.829Z,19.28
2022-07-29T18:42:03.211Z,19.22
2022-07-29T18:44:33.677Z,19.15
2022-07-29T18:47:14.130Z,19.05
2022-07-29T18:49:44.608Z,18.95
2022-07-29T18:52:15.042Z,18.85
2022-07-29T18:54:45.365Z,18.78
2022-07-29T18:57:54.703Z,18.71
2022-07-29T19:00:10.653Z,18.61
2022-07-29T19:02:43.481Z,18.50
2022-07-29T19:05:14.321Z,18.41
2022-07-29T19:07:44.725Z,18.32
2022-07-29T19:10:15.310Z,18.23
2022-07-29T19:12:45.704Z,18.19
2022-07-29T19:15:19.973Z,18.13
2022-07-29T19:17:51.378Z,18.09
2022-07-29T19:20:22.172Z,18.05
2022-07-29T19:22:52.710Z,18.02
2022-07-29T19:25:23.397Z,18.00
2022-07-29T19:27:54.317Z,17.97
2022-07-29T19:30:24.971Z,17.99
2022-07-29T19:32:55.506Z,18.00
2022-07-29T19:35:28.432Z,18.02
2022-07-29T19:38:00.517Z,18.03
2022-07-29T19:40:31.802Z,18.04
2022-07-29T19:43:49.740Z,18.05
2022-07-29T19:45:56.088Z,18.13
2022-07-29T19:48:26.853Z,18.19
2022-07-29T19:50:57.739Z,18.25
2022-07-29T19:53:28.301Z,18.29
2022-07-29T19:56:01.105Z,18.31
2022-07-29T19:58:32.441Z,18.30
2022-07-29T20:01:10.452Z,18.30
2022-07-29T20:03:42.210Z,18.28
2022-07-29T20:06:13.269Z,18.24
2022-07-29T20:08:45.206Z,18.21
2022-07-29T20:11:16.191Z,18.17
2022-07-29T20:13:47.418Z,18.11
2022-07-29T20:16:18.895Z,18.05
2022-07-29T20:18:50.085Z,18.00
2022-07-29T20:21:21.952Z,17.98
2022-07-29T20:23:52.910Z,17.98
2022-07-29T20:26:24.151Z,18.01
2022-07-29T20:28:55.087Z,18.02
2022-07-29T20:31:26.250Z,18.06
2022-07-29T20:33:57.437Z,18.08
2022-07-29T20:36:28.411Z,18.13
2022-07-29T20:39:01.435Z,18.19
2022-07-29T20:41:33.961Z,18.23
2022-07-29T20:44:05.123Z,18.25
2022-07-29T20:46:36.021Z,18.26
2022-07-29T20:49:07.163Z,18.26
2022-07-29T20:51:43.465Z,18.29
2022-07-29T20:54:15.061Z,18.31
2022-07-29T20:56:45.824Z,18.31
2022-07-29T20:59:17.753Z,18.30
2022-07-29T21:01:49.060Z,18.26
2022-07-29T21:04:21.023Z,18.25
2022-07-29T21:06:52.215Z,18.24
2022-07-29T21:09:24.671Z,18.22
2022-07-29T21:11:56.939Z,18.18
2022-07-29T21:14:47.733Z,18.14
2022-07-29T21:17:22.764Z,18.11
2022-07-29T21:19:55.497Z,18.09
2022-07-29T21:22:25.785Z,18.09
2022-07-29T21:24:58.580Z,18.09
2022-07-29T21:27:46.724Z,18.11
2022-07-29T21:30:18.880Z,18.11
2022-07-29T21:32:50.497Z,18.11
2022-07-29T21:35:52.163Z,18.12
2022-07-29T21:38:13.085Z,18.13
2022-07-29T21:40:55.420Z,18.15
2022-07-29T21:43:28.478Z,18.16
2022-07-29T21:45:59.660Z,18.16
2022-07-29T21:48:30.706Z,18.14
2022-07-29T21:51:01.179Z,18.11
2022-07-29T21:53:31.604Z,18.06
2022-07-29T21:56:01.977Z,18.02
2022-07-29T21:58:32.364Z,17.93
2022-07-29T22:01:02.808Z,17.83
2022-07-29T22:03:33.125Z,17.71
2022-07-29T22:06:03.500Z,17.59
2022-07-29T22:08:33.916Z,17.50
2022-07-29T22:11:04.423Z,17.43
2022-07-29T22:13:34.771Z,17.37
2022-07-29T22:16:06.481Z,17.30
2022-07-29T22:18:36.895Z,17.24
2022-07-29T22:21:07.252Z,17.18
2022-07-29T22:23:37.558Z,17.14
2022-07-29T22:26:07.932Z,17.11
2022-07-29T22:28:38.769Z,17.08
2022-07-29T22:31:11.342Z,17.06
2022-07-29T22:33:41.683Z,17.03
2022-07-29T22:36:12.055Z,17.01
2022-07-29T22:38:42.350Z,17.00
2022-07-29T22:41:14.809Z,17.01
2022-07-29T22:43:46.149Z,17.03
2022-07-29T22:46:16.637Z,17.04
2022-07-29T22:48:47.162Z,17.06
2022-07-29T22:51:17.714Z,17.05
2022-07-29T22:53:49.228Z,17.02
2022-07-29T22:56:20.360Z,17.00
2022-07-29T22:58:51.205Z,16.98
2022-07-29T23:01:37.595Z,16.96
2022-07-29T23:04:09.509Z,16.93
2022-07-29T23:06:41.094Z,16.90
2022-07-29T23:09:13.116Z,16.85
2022-07-29T23:11:44.487Z,16.81
2022-07-29T23:14:15.348Z,16.79
2022-07-29T23:16:47.519Z,16.80
2022-07-29T23:19:21.170Z,16.84
2022-07-29T23:21:54.173Z,16.88
2022-07-29T23:24:25.033Z,16.91
2022-07-29T23:26:57.242Z,16.95
2022-07-29T23:29:28.293Z,16.97
2022-07-29T23:32:00.751Z,16.99
2022-07-29T23:34:31.329Z,17.03
2022-07-29T23:37:02.131Z,17.06
2022-07-29T23:39:33.783Z,17.09
2022-07-29T23:42:05.421Z,17.10
2022-07-29T23:44:37.569Z,17.11
2022-07-29T23:47:09.240Z,17.11
2022-07-29T23:49:41.361Z,17.11
2022-07-29T23:52:14.222Z,17.12
2022-07-29T23:54:46.569Z,17.15
2022-07-29T23:57:18.304Z,17.15
2022-07-29T23:59:49.364Z,17.15
